Airfield :
LOGIN :

Register | Disclaimer

   EN    FR    IT 

 










Legend :    VFR   Marginal VFR   IFR   Intensive IFR   Very Intensive IFR
Visi :
Ceiling :
>= 8 km
>= 3000ft
5 to 8 km
1000 to 3000 ft
1500m to 5 km
500 to 1000 ft
800 to 1500m
200 to 500 ft
< 800m
< 200 ft
Symbols :   Thunderstorms  Fog  Heavy snow  Heavy precipitations  Wind > 20 kt
SIGMETs :     Misc.  Thunderstorms  Icing  Turbulence  Mountain Waves  Volcanic Ashes







- Airport Elevation : 1020 ft
- IATA code : ILZ


LZZI - Žilina

CURRENT METAR :
  • 180730Z 09003KT 030V160 CAVOK 21/16 Q1019

EXPIRED METARs :
  • 180700Z VRB02KT 9999 FEW016 SCT086 20/16 Q1019
  • 180648Z VRB02KT 9999 FEW017 20/16 Q1019
  • 180630Z 09003KT 060V120 9999 FEW014 18/15 Q1019
  • 180600Z 07002KT CAVOK 17/15 Q1019
  • 180530Z 06002KT CAVOK 16/15 Q1019
  • 180500Z 00000KT 9999 FEW002 15/14 Q1019

TAF TAF LZZI
Valid from the 18 at 06:00 until the 18 at 15:00 UTC


180500Z 1806/1815 VRB02KT CAVOK
TEMPO 1806/1813 9999 FEW045
BECMG 1813/1815 03005KT
No reported NOTAMs for that airfield.



MET'MAP, your aeronautical weather chart ! - Copyright ORBIFLY December 2007 - Disclaimer

ORBIFLY MET'MAP TEAM :

Programming & Development : Alexandra Zaïnal
Concept & Development : Baudouin d'Aumeries
Co-Development & Prog : Marc-Olivier Méhu
Technical & hardware support : Manuel Goepfert

Contact : metmap@orbifly.com




SOURCES & CREDITS :

   NOAA